Time,TemperatureF,DewpointF,PressureIn,WindDirection,WindDirectionDegrees,WindSpeedMPH,WindSpeedGustMPH,Humidity,HourlyPrecipIn,Conditions,Clouds,dailyrainin,SoftwareType,DateUTC
2013-02-18 00:08:00,23.0,15.3,30.03,SSE,157,0.0,-999.0,72,-99.99,,,0.00,Acu-Link.com,2013-02-18 05:08:00,
2013-02-18 00:23:00,22.5,15.5,30.03,SSE,157,0.0,-999.0,74,-99.99,,,0.00,Acu-Link.com,2013-02-18 05:23:00,
2013-02-18 00:38:00,22.5,14.9,30.04,ENE,67,0.0,-999.0,72,-99.99,,,0.00,Acu-Link.com,2013-02-18 05:38:00,
2013-02-18 00:54:00,22.3,16.2,30.04,North,0,0.0,-999.0,77,-99.99,,,0.00,Acu-Link.com,2013-02-18 05:54:00,
2013-02-18 01:09:00,22.1,16.3,30.04,North,0,0.0,-999.0,78,-99.99,,,0.00,Acu-Link.com,2013-02-18 06:09:00,
2013-02-18 01:24:00,21.9,17.0,30.04,North,0,0.0,-999.0,81,-99.99,,,0.00,Acu-Link.com,2013-02-18 06:24:00,
2013-02-18 01:40:00,21.7,17.3,30.04,NNW,337,0.0,-999.0,83,-99.99,,,0.00,Acu-Link.com,2013-02-18 06:40:00,
2013-02-18 01:55:00,22.1,16.6,30.04,NNE,22,0.0,-999.0,79,-99.99,,,0.00,Acu-Link.com,2013-02-18 06:55:00,
2013-02-18 02:10:00,21.7,17.3,30.04,NNE,22,1.1,-999.0,83,-99.99,,,0.00,Acu-Link.com,2013-02-18 07:10:00,
2013-02-18 02:26:00,21.6,17.3,30.05,NW,315,0.0,-999.0,83,-99.99,,,0.00,Acu-Link.com,2013-02-18 07:26:00,
2013-02-18 02:41:00,21.2,16.3,30.05,SSE,157,0.0,-999.0,81,-99.99,,,0.00,Acu-Link.com,2013-02-18 07:41:00,
2013-02-18 02:56:00,21.0,17.2,30.05,SSE,157,0.0,-999.0,85,-99.99,,,0.00,Acu-Link.com,2013-02-18 07:56:00,
2013-02-18 03:11:00,21.0,17.5,30.05,SE,135,0.0,-999.0,86,-99.99,,,0.00,Acu-Link.com,2013-02-18 08:11:00,
2013-02-18 03:27:00,20.7,16.6,30.05,SE,135,0.0,-999.0,84,-99.99,,,0.00,Acu-Link.com,2013-02-18 08:27:00,
2013-02-18 03:42:00,20.7,16.9,30.05,SSE,157,0.0,-999.0,85,-99.99,,,0.00,Acu-Link.com,2013-02-18 08:42:00,
2013-02-18 03:58:00,20.5,17.0,30.04,SE,135,0.0,-999.0,86,-99.99,,,0.00,Acu-Link.com,2013-02-18 08:58:00,
2013-02-18 04:18:00,20.7,17.5,30.06,South,180,1.7,-999.0,87,-99.99,,,0.00,Acu-Link.com,2013-02-18 09:18:00,
2013-02-18 04:33:00,21.0,17.8,30.05,East,90,0.0,-999.0,87,-99.99,,,0.00,Acu-Link.com,2013-02-18 09:33:00,
2013-02-18 04:48:00,20.7,17.2,30.07,NE,45,0.0,-999.0,86,-99.99,,,0.00,Acu-Link.com,2013-02-18 09:48:00,
2013-02-18 05:04:00,20.8,17.3,30.06,ESE,112,0.0,-999.0,86,-99.99,,,0.00,Acu-Link.com,2013-02-18 10:04:00,
2013-02-18 05:19:00,21.4,18.1,30.07,ENE,67,1.1,-999.0,87,-99.99,,,0.00,Acu-Link.com,2013-02-18 10:19:00,
2013-02-18 05:34:00,21.7,18.7,30.08,NE,45,1.7,-999.0,88,-99.99,,,0.00,Acu-Link.com,2013-02-18 10:34:00,
2013-02-18 05:49:00,21.7,18.2,30.08,ESE,112,1.1,-999.0,86,-99.99,,,0.00,Acu-Link.com,2013-02-18 10:49:00,
2013-02-18 06:04:00,21.2,17.7,30.08,ESE,112,0.0,-999.0,86,-99.99,,,0.00,Acu-Link.com,2013-02-18 11:04:00,
2013-02-18 06:20:00,20.8,17.3,30.09,ESE,112,1.7,-999.0,86,-99.99,,,0.00,Acu-Link.com,2013-02-18 11:20:00,
2013-02-18 06:35:00,20.8,17.3,30.09,ESE,112,1.7,-999.0,86,-99.99,,,0.00,Acu-Link.com,2013-02-18 11:35:00,
2013-02-18 06:50:00,20.5,17.0,30.07,ESE,112,1.1,-999.0,86,-99.99,,,0.00,Acu-Link.com,2013-02-18 11:50:00,
2013-02-18 07:05:00,20.8,17.3,30.06,ESE,112,0.0,-999.0,86,-99.99,,,0.00,Acu-Link.com,2013-02-18 12:05:00,
2013-02-18 07:21:00,20.3,16.8,30.07,ESE,112,0.0,-999.0,86,-99.99,,,0.00,Acu-Link.com,2013-02-18 12:21:00,
2013-02-18 07:36:00,20.1,16.6,30.07,ESE,112,0.0,-999.0,86,-99.99,,,0.00,Acu-Link.com,2013-02-18 12:36:00,
2013-02-18 07:51:00,20.7,18.0,30.08,ESE,112,0.0,-999.0,89,-99.99,,,0.00,Acu-Link.com,2013-02-18 12:51:00,
2013-02-18 08:06:00,21.7,18.7,30.08,ESE,112,0.0,-999.0,88,-99.99,,,0.00,Acu-Link.com,2013-02-18 13:06:00,
2013-02-18 08:21:00,25.0,20.9,30.08,ESE,112,0.0,-999.0,84,-99.99,,,0.00,Acu-Link.com,2013-02-18 13:21:00,
2013-02-18 08:37:00,27.9,21.6,30.08,ESE,112,1.1,-999.0,77,-99.99,,,0.00,Acu-Link.com,2013-02-18 13:37:00,
2013-02-18 08:52:00,29.8,21.9,30.08,East,90,1.7,-999.0,72,-99.99,,,0.00,Acu-Link.com,2013-02-18 13:52:00,
2013-02-18 09:07:00,32.5,22.8,30.09,SE,135,2.2,-999.0,67,-99.99,,,0.00,Acu-Link.com,2013-02-18 14:07:00,
2013-02-18 09:23:00,36.7,23.7,30.08,NNW,337,2.2,-999.0,59,-99.99,,,0.00,Acu-Link.com,2013-02-18 14:23:00,
2013-02-18 09:38:00,35.4,24.1,30.08,East,90,1.7,-999.0,63,-99.99,,,0.00,Acu-Link.com,2013-02-18 14:38:00,
2013-02-18 09:53:00,37.0,24.0,30.08,NNE,22,3.2,-999.0,59,-99.99,,,0.00,Acu-Link.com,2013-02-18 14:53:00,
2013-02-18 10:08:00,42.1,23.8,30.07,West,270,1.7,-999.0,48,-99.99,,,0.00,Acu-Link.com,2013-02-18 15:08:00,
2013-02-18 10:24:00,40.6,24.4,30.07,NE,45,2.2,-999.0,52,-99.99,,,0.00,Acu-Link.com,2013-02-18 15:24:00,
2013-02-18 10:39:00,42.6,25.3,30.07,SE,135,2.2,-999.0,50,-99.99,,,0.00,Acu-Link.com,2013-02-18 15:39:00,
2013-02-18 10:54:00,44.4,24.9,30.06,West,270,3.7,-999.0,46,-99.99,,,0.00,Acu-Link.com,2013-02-18 15:54:00,
2013-02-18 11:09:00,45.9,25.2,30.05,NW,315,2.2,-999.0,44,-99.99,,,0.00,Acu-Link.com,2013-02-18 16:09:00,
2013-02-18 11:24:00,51.1,25.1,30.05,South,180,2.7,-999.0,36,-99.99,,,0.00,Acu-Link.com,2013-02-18 16:24:00,
2013-02-18 11:40:00,54.7,26.9,30.05,SSE,157,4.2,-999.0,34,-99.99,,,0.00,Acu-Link.com,2013-02-18 16:40:00,
2013-02-18 11:55:00,55.9,24.9,30.03,North,0,1.1,-999.0,30,-99.99,,,0.00,Acu-Link.com,2013-02-18 16:55:00,
2013-02-18 12:10:00,57.6,24.7,30.03,SSE,157,2.7,-999.0,28,-99.99,,,0.00,Acu-Link.com,2013-02-18 17:10:00,
2013-02-18 12:25:00,56.5,28.5,30.02,West,270,3.7,-999.0,34,-99.99,,,0.00,Acu-Link.com,2013-02-18 17:25:00,
2013-02-18 12:41:00,59.4,26.3,30.01,SSW,202,5.3,-999.0,28,-99.99,,,0.00,Acu-Link.com,2013-02-18 17:41:00,
2013-02-18 12:56:00,59.5,24.6,30.00,WNW,292,5.3,-999.0,26,-99.99,,,0.00,Acu-Link.com,2013-02-18 17:56:00,
2013-02-18 13:11:00,57.0,25.1,29.98,SW,225,5.3,-999.0,29,-99.99,,,0.00,Acu-Link.com,2013-02-18 18:11:00,
2013-02-18 13:26:00,59.9,24.0,29.97,South,180,3.2,-999.0,25,-99.99,,,0.00,Acu-Link.com,2013-02-18 18:26:00,
2013-02-18 13:42:00,59.0,26.8,29.96,West,270,2.7,-999.0,29,-99.99,,,0.00,Acu-Link.com,2013-02-18 18:42:00,
2013-02-18 13:57:00,59.0,25.9,29.95,SSW,202,4.7,-999.0,28,-99.99,,,0.00,Acu-Link.com,2013-02-18 18:57:00,
2013-02-18 14:12:00,59.5,27.2,29.94,SSW,202,3.2,-999.0,29,-99.99,,,0.00,Acu-Link.com,2013-02-18 19:12:00,
2013-02-18 14:27:00,59.4,27.1,29.92,NNW,337,4.2,-999.0,29,-99.99,,,0.00,Acu-Link.com,2013-02-18 19:27:00,
2013-02-18 14:42:00,62.8,25.5,29.92,SW,225,3.7,-999.0,24,-99.99,,,0.00,Acu-Link.com,2013-02-18 19:42:00,
2013-02-18 14:58:00,62.1,26.8,29.91,SSE,157,3.7,-999.0,26,-99.99,,,0.00,Acu-Link.com,2013-02-18 19:58:00,
2013-02-18 15:13:00,62.8,26.5,29.91,SSE,157,8.3,-999.0,25,-99.99,,,0.00,Acu-Link.com,2013-02-18 20:13:00,
2013-02-18 15:29:00,63.3,25.9,29.91,South,180,5.8,-999.0,24,-99.99,,,0.00,Acu-Link.com,2013-02-18 20:29:00,
2013-02-18 15:44:00,61.3,25.2,29.90,West,270,5.3,-999.0,25,-99.99,,,0.00,Acu-Link.com,2013-02-18 20:44:00,
2013-02-18 15:59:00,59.4,26.3,29.90,SSW,202,4.2,-999.0,28,-99.99,,,0.00,Acu-Link.com,2013-02-18 20:59:00,
2013-02-18 16:14:00,61.9,26.6,29.88,SSW,202,7.8,-999.0,26,-99.99,,,0.00,Acu-Link.com,2013-02-18 21:14:00,
2013-02-18 16:29:00,61.3,25.2,29.88,SW,225,4.2,-999.0,25,-99.99,,,0.00,Acu-Link.com,2013-02-18 21:29:00,
2013-02-18 16:44:00,62.6,25.3,29.88,SE,135,2.7,-999.0,24,-99.99,,,0.00,Acu-Link.com,2013-02-18 21:44:00,
2013-02-18 17:15:00,60.3,27.1,29.86,SE,135,5.8,-999.0,28,-99.99,,,0.00,Acu-Link.com,2013-02-18 22:15:00,
2013-02-18 17:30:00,60.1,25.1,29.85,South,180,3.2,-999.0,26,-99.99,,,0.00,Acu-Link.com,2013-02-18 22:30:00,
2013-02-18 17:45:00,59.0,25.1,29.84,SSW,202,2.7,-999.0,27,-99.99,,,0.00,Acu-Link.com,2013-02-18 22:45:00,
2013-02-18 18:01:00,57.4,25.4,29.84,SSW,202,2.7,-999.0,29,-99.99,,,0.00,Acu-Link.com,2013-02-18 23:01:00,
2013-02-18 18:16:00,56.1,25.1,29.84,SSE,157,2.2,-999.0,30,-99.99,,,0.00,Acu-Link.com,2013-02-18 23:16:00,
2013-02-18 18:31:00,56.1,25.1,29.84,South,180,3.7,-999.0,30,-99.99,,,0.00,Acu-Link.com,2013-02-18 23:31:00,
2013-02-18 18:47:00,55.6,25.5,29.84,SSE,157,2.7,-999.0,31,-99.99,,,0.00,Acu-Link.com,2013-02-18 23:47:00,
2013-02-18 19:02:00,55.8,25.6,29.84,South,180,3.2,-999.0,31,-99.99,,,0.00,Acu-Link.com,2013-02-19 00:02:00,
2013-02-18 19:17:00,55.4,25.3,29.83,SSE,157,3.2,-999.0,31,-99.99,,,0.00,Acu-Link.com,2013-02-19 00:17:00,
2013-02-18 19:32:00,54.7,26.2,29.84,SE,135,2.7,-999.0,33,-99.99,,,0.00,Acu-Link.com,2013-02-19 00:32:00,
2013-02-18 19:47:00,54.3,25.8,29.82,SSE,157,2.7,-999.0,33,-99.99,,,0.00,Acu-Link.com,2013-02-19 00:47:00,
2013-02-18 20:18:00,53.1,25.5,29.82,WSW,247,2.2,-999.0,34,-99.99,,,0.00,Acu-Link.com,2013-02-19 01:18:00,
2013-02-18 20:33:00,52.9,26.0,29.81,SE,135,8.3,-999.0,35,-99.99,,,0.00,Acu-Link.com,2013-02-19 01:33:00,
2013-02-18 20:48:00,52.9,26.0,29.78,SSE,157,3.7,-999.0,35,-99.99,,,0.00,Acu-Link.com,2013-02-19 01:48:00,
2013-02-18 21:03:00,52.2,25.4,29.77,South,180,3.2,-999.0,35,-99.99,,,0.00,Acu-Link.com,2013-02-19 02:03:00,
2013-02-18 21:19:00,52.5,25.0,29.76,SSE,157,5.8,-999.0,34,-99.99,,,0.00,Acu-Link.com,2013-02-19 02:19:00,
2013-02-18 21:34:00,51.6,24.9,29.77,SSE,157,3.2,-999.0,35,-99.99,,,0.00,Acu-Link.com,2013-02-19 02:34:00,
2013-02-18 21:49:00,51.8,23.6,29.76,SSE,157,6.3,-999.0,33,-99.99,,,0.00,Acu-Link.com,2013-02-19 02:49:00,
2013-02-18 22:04:00,51.6,24.2,29.76,South,180,5.8,-999.0,34,-99.99,,,0.00,Acu-Link.com,2013-02-19 03:04:00,
2013-02-18 22:19:00,51.4,24.0,29.77,SSW,202,2.7,-999.0,34,-99.99,,,0.00,Acu-Link.com,2013-02-19 03:19:00,
2013-02-18 22:34:00,51.4,24.0,29.74,South,180,4.7,-999.0,34,-99.99,,,0.00,Acu-Link.com,2013-02-19 03:34:00,
2013-02-18 22:50:00,50.9,23.5,29.74,South,180,3.7,-999.0,34,-99.99,,,0.00,Acu-Link.com,2013-02-19 03:50:00,
2013-02-18 23:05:00,50.4,24.5,29.75,SSW,202,3.7,-999.0,36,-99.99,,,0.00,Acu-Link.com,2013-02-19 04:05:00,
2013-02-18 23:20:00,49.3,24.1,29.74,NE,45,2.2,-999.0,37,-99.99,,,0.00,Acu-Link.com,2013-02-19 04:20:00,
2013-02-18 23:35:00,49.1,24.6,29.74,SE,135,3.2,-999.0,38,-99.99,,,0.00,Acu-Link.com,2013-02-19 04:35:00,
2013-02-18 23:50:00,49.1,24.6,29.74,NW,315,5.3,-999.0,38,-99.99,,,0.00,Acu-Link.com,2013-02-19 04:50:00,